ADDS TAF Board (Experimental) INFO Settings

IDs: Format: Expanded Condensed

KORD - Chicago/O'Hare Intl, IL, US

Issued at 1607 UTC 29 Mar 2015
Updated at: 1622 UTC 29 Mar 2015
Time1551Z 29/17Z 29/18Z 29/19Z 29/20Z 29/21Z 29/22Z 29/23Z 30/00Z 30/01Z 30/02Z 30/03Z 30/04Z 30/05Z
Type OBS PRVL PRVL PRVL PRVL PRVL PRVL PRVL
  [TEMP]  
PRVL
  [TEMP]  
PRVL PRVL PRVL PRVL PRVL
VIS 10 6 >6 >6 >6 >6 >6 >6
  [5]  
>6
  [5]  
>6 >6 >6 >6 >6
CIG 80 70 50 50 50 50 50 50
  [50]  
50
  [50]  
35 35 35 35 --
Cover OVC OVC OVC OVC OVC OVC OVC OVC
  [OVC]  
OVC
  [OVC]  
BKN BKN BKN BKN FEW
FltCat VFR VFR VFR VFR VFR VFR VFR VFR
  [MVFR]  
VFR
  [MVFR]  
VFR VFR VFR VFR VFR
WX -RA -RA -- -- -- -- -- --
  [-SHRA]  
--
  [-SHRA]  
-- -- -- -- --
WDir 190 190 200 200 200 200 200 200
[200]
200
[200]
270 270 270 270 280
WSpd 17 20 23 23 23 23 23 23
  [23]  
23
  [23]  
12 12 12 12 11
WGst 30 35 35 35 35 35 35 35
  [35]  
35
  [35]  
24 24 24 24 --
R04/22
XWnd -8 -10 -7 -7 -7 -7 -7 -7 -7 9 9 9 9 10
XGst -15 -17 -11 -11 -11 -11 -11 -11 -11 19 19 19 19 --
HWnd -15 -17 -22 -22 -22 -22 -22 -22 -22 -8 -8 -8 -8 -5
HGst -26 -31 -33 -33 -33 -33 -33 -33 -33 -15 -15 -15 -15 --
R09/27
XWnd -17 -20 -22 -22 -22 -22 -22 -22 -22 -0 -0 -0 -0 2
XGst -30 -34 -33 -33 -33 -33 -33 -33 -33 -0 -0 -0 -0 --
HWnd -3 -3 -8 -8 -8 -8 -8 -8 -8 -12 -12 -12 -12 -11
HGst -5 -6 -12 -12 -12 -12 -12 -12 -12 -24 -24 -24 -24 --
R10/28
XWnd -17 -20 -22 -22 -22 -22 -22 -22 -22 -0 -0 -0 -0 2
XGst -30 -34 -33 -33 -33 -33 -33 -33 -33 -0 -0 -0 -0 --
HWnd -3 -3 -8 -8 -8 -8 -8 -8 -8 -12 -12 -12 -12 -11
HGst -5 -6 -12 -12 -12 -12 -12 -12 -12 -24 -24 -24 -24 --
R14/32
XWnd -13 -15 -20 -20 -20 -20 -20 -20 -20 -9 -9 -9 -9 -7
XGst -23 -27 -30 -30 -30 -30 -30 -30 -30 -18 -18 -18 -18 --
HWnd 11 13 12 12 12 12 12 12 12 -8 -8 -8 -8 -8
HGst 19 22 18 18 18 18 18 18 18 -15 -15 -15 -15 --

NOTE: TEMPO conditions in [brackets]. Keep in mind TEMPO conditions might be better (lower impact) than prevailing conditions.

Raw TAF
KORD 291607Z 2916/3018 19020G35KT 6SM -RA SCT035 OVC070
  TEMPO 2916/2917 3SM -RA BKN035 OVC070
  FM291730 20023G35KT P6SM SCT030 BKN050 OVC070
  TEMPO 2923/3001 5SM -SHRA
  FM300100 27012G24KT P6SM BKN035
  FM300500 28011KT P6SM FEW040


Raw METAR
KORD 291551Z 19017G30KT 10SM -RA SCT044 BKN080 OVC090 03/M08 A2997 RMK AO2 PK WND 20031/1521 RAB47 SLP155 P0000 T00281078
KORD 291451Z 20017G29KT 10SM FEW080 SCT160 OVC200 02/M08 A3004 RMK AO2 PK WND 19029/1444 SLP179 T00221083 58029
KORD 291351Z 19018G25KT 10SM BKN160 OVC220 01/M09 A3006 RMK AO2 PK WND 19028/1329 SLP188 T00111089

METAR Board
Radar Display
Forecast Discussion

TAF Board Legend

Potential Impact
Threat None Slight Moderate High
Visibility (sm) ≥5.1 5.1>X≥3 3>X≥1 <1
Ceiling (100 ft) ≥30.1 30.1>X≥10 10>X≥5 <5
Wind Speed (kt) <10 10≤X<20 20≤X<30 ≥30
Wind Gust (kt) <15 15≤X<25 25≤X<35 ≥35
Weather No Wx Reported VCTS,-TS,-FZRA,SN TS,FZRA +TS,+FZRA,+SN